Latest Coastal Weather Observations for Hobart Airport

IDT60701

Issued at 11:45 pm EST Friday 25 July 2014 (issued every 10 minutes, with the page automatically refreshed every 10 minutes)

About coastal observations | Map of coastal stations | Coastal observations for TAS | Marine services | Other Formats
Station Details ID: 094008 Name: HOBART AIRPORT Lat: -42.83 Lon: 147.50 Height: 4.0 m
Data from the previous 72 hours. | See also: Recent months at Hobart Airport
Date/Time
EST
Temp

°C
Wind Pressure Rain
since 9am
mm
Weather Cloud Vis
km
Sea
Height
m
Swell
Dir
 
Speed
knots
Gust
knots
hPa Trend Height
m
Period
s
Dir
25/11:30pm 6.1 NW 4 5 1019.3 - 0.4 Shallow fog Partly cloudy 10 - - - -
25/11:00pm 6.1 WNW 5 7 1019.2 - 0.4 - Mostly clear 10 - - - -
25/10:30pm 6.5 NW 5 6 1018.9 - 0.4 Shallow fog Mostly clear 10 - - - -
25/10:00pm 6.6 NNW 5 5 1019.1 - 0.4 - Mostly clear 10 - - - -
25/09:30pm 6.3 N 3 4 1019.0 - 0.4 Shallow fog Mostly clear 10 - - - -
25/09:00pm 6.6 N 2 5 1019.1 R 0.4 Shallow fog Mostly clear 30 - - - -
25/08:30pm 7.2 CALM 0 3 1018.7 - 0.4 Fog patches Mostly clear 10 - - - -
25/08:00pm 8.5 CALM 0 3 1018.8 - 0.4 - Mostly clear 10 - - - -
25/07:34pm 7.8 NE 5 6 1018.3 - 0.4 Shallow fog Mostly clear 10 - - - -
25/07:30pm 8.1 NNE 5 6 1018.2 - 0.4 - Mostly clear 10 - - - -
25/07:00pm 9.5 CALM 0 0 1018.2 - 0.4 - Mostly clear 10 - - - -
25/06:30pm 11.1 W 1 4 1017.6 - 0.4 - Mostly clear 10 - - - -
25/06:00pm 11.1 WNW 4 4 1017.7 R 0.4 Fine Mostly cloudy 35 - - - -
25/05:30pm 11.3 WNW 6 7 1017.6 - 0.4 Showers Mostly clear 10 - - - -
25/05:00pm 11.6 NNW 4 5 1017.4 - 0.2 - Mostly clear 10 - - - -
25/04:30pm 12.2 NNW 4 6 1017.2 - 0.2 Showers Mostly clear 10 - - - -
25/04:00pm 12.6 WNW 5 5 1017.4 - 0.2 - Mostly clear 10 - - - -
25/03:30pm 11.9 CALM 0 0 1016.9 - 0.2 Showers Mostly clear 10 - - - -
25/03:00pm 12.8 ENE 1 4 1016.8 S 0.0 Showers Mostly cloudy 40 - - - -
25/02:30pm 12.7 SE 7 8 1016.5 - 0.0 - Mostly clear 10 - - - -
25/02:00pm 11.7 SSE 5 9 1016.7 - 0.0 - Mostly clear 10 - - - -
25/01:30pm 13.9 NW 4 5 1016.6 - 0.0 - Mostly clear 10 - - - -
25/01:00pm 13.0 NW 5 6 1016.9 - 0.0 - Mostly clear 10 - - - -
25/12:30pm 12.0 NW 5 6 1017.1 - 0.0 - Mostly clear 10 - - - -
25/12:00pm 11.2 NW 5 6 1017.7 S 0.0 Fine Partly cloudy 40 - - - -
25/11:30am 9.0 NW 6 8 1018.0 - 0.0 - Mostly clear 10 - - - -
25/11:00am 8.0 NW 7 8 1018.4 - 0.0 - Mostly clear 10 - - - -
25/10:30am 7.5 WNW 10 12 1018.4 - 0.0 - Mostly clear 10 - - - -
25/10:00am 7.1 WNW 10 12 1018.7 - 0.0 - Mostly clear 10 - - - -
25/09:30am 6.2 WNW 9 10 1018.3 - 0.0 - Mostly clear 10 - - - -
25/09:00am 5.5 WNW 6 8 1018.5 R 0.0 Fine Mostly cloudy 40 - - - -
25/08:30am 5.3 N 3 4 1018.6 - 0.0 - Mostly clear 10 - - - -
25/08:00am 4.9 NNW 4 6 1018.1 - 0.0 - Mostly clear 10 - - - -
25/07:30am 4.6 WNW 7 9 1017.7 - 0.0 - Mostly clear 10 - - - -
25/07:00am 4.8 NW 7 9 1017.6 - 0.0 - Mostly clear 10 - - - -
25/06:30am 4.3 WNW 6 7 1017.5 - 0.0 - Mostly clear 10 - - - -
25/06:00am 4.4 NNW 5 8 1017.7 F 0.0 Haze Mostly cloudy 25 - - - -
25/05:30am 4.0 NW 5 6 1017.3 - 0.0 - Mostly clear 10 - - - -
25/05:00am 3.4 WNW 4 6 1017.6 - 0.0 - Mostly clear 10 - - - -
25/04:30am 3.5 NW 6 8 1017.7 - 0.0 - Mostly clear 10 - - - -
25/04:00am 3.4 WNW 4 5 1017.4 - 0.0 - Mostly clear 10 - - - -
25/03:30am 3.5 NNW 7 9 1017.7 - 0.0 Fog patches Partly cloudy 10 - - - -
25/03:00am 3.5 NW 4 6 1017.8 F 0.0 Haze Partly cloudy 15 - - - -
25/02:30am 4.0 NW 6 8 1017.9 - 0.0 - Partly cloudy 10 - - - -
25/02:00am 4.2 NW 9 11 1018.1 - 0.0 - Partly cloudy 10 - - - -
25/01:30am 3.8 NW 5 7 1017.8 - 0.0 - Mostly clear 10 - - - -
25/01:00am 4.0 NW 5 7 1018.2 - 0.0 - - 10 - - - -
25/12:30am 3.9 NW 5 5 1018.4 - 0.0 - - 10 - - - -
25/12:00am 4.3 WNW 7 9 1018.5 F 0.0 HAZE Partly cloudy 10 - - - -
 
Date/Time
EST
Temp

°C
Wind Pressure Rain
since 9am
mm
Weather Cloud Vis
km
Sea
Height
m
Swell
Dir
 
Speed
knots
Gust
knots
hPa Trend Height
m
Period
s
Dir
24/11:30pm 4.4 WNW 5 6 1018.9 - 0.0 - - 10 - - - -
24/11:00pm 4.9 NW 7 9 1019.1 - 0.0 - - 10 - - - -
24/10:30pm 5.1 NW 8 10 1018.9 - 0.0 - - 10 - - - -
24/10:00pm 5.5 NW 7 8 1019.1 - 0.0 - - 10 - - - -
24/09:30pm 5.0 WNW 8 9 1018.9 - 0.0 - - 10 - - - -
24/09:00pm 5.3 NW 5 6 1019.0 F 0.0 Haze Partly cloudy 30 - - - -
24/08:30pm 5.8 WNW 6 7 1018.8 - 0.0 - - 10 - - - -
24/08:00pm 6.4 NW 4 6 1018.7 - 0.0 - - 10 - - - -
24/07:30pm 6.8 NW 5 6 1018.5 - 0.0 - - 10 - - - -
24/07:00pm 7.1 NW 6 7 1018.5 - 0.0 - - 10 - - - -
24/06:30pm 7.2 NW 5 6 1018.4 - 0.0 - - 10 - - - -
24/06:00pm 6.9 N 5 6 1018.4 F 0.0 Fine Mostly cloudy 40 - - - -
24/05:30pm 6.7 N 3 4 1018.2 - 0.0 - Mostly clear 10 - - - -
24/05:00pm 8.5 NW 6 7 1018.2 - 0.0 - Mostly clear 10 - - - -
24/04:30pm 9.0 NW 6 6 1018.2 - 0.0 - Mostly clear 10 - - - -
24/04:00pm 9.6 NW 6 7 1018.1 - 0.0 - Mostly clear 10 - - - -
24/03:30pm 9.7 NW 6 7 1017.9 - 0.0 - Mostly clear 10 - - - -
24/03:00pm 9.7 NW 7 8 1018.0 F 0.0 Fine Mostly cloudy 40 - - - -
24/02:30pm 9.9 NW 7 8 1017.9 - 0.0 - - 10 - - - -
24/02:00pm 10.3 WNW 7 8 1018.0 - 0.0 - - 10 - - - -
24/01:30pm 9.7 NW 6 6 1018.4 - 0.0 - - 10 - - - -
24/01:00pm 10.1 NW 6 7 1018.8 - 0.0 - - 10 - - - -
24/12:30pm 9.3 NW 8 9 1019.1 - 0.0 - - 10 - - - -
24/12:00pm 9.8 N 4 6 1019.5 F 0.0 Fine Partly cloudy 40 - - - -
24/11:30am 9.3 NE 3 5 1019.8 - 0.0 - - 10 - - - -
24/11:00am 8.1 NE 4 5 1020.3 - 0.0 - - 10 - - - -
24/10:30am 7.1 NW 5 6 1020.4 - 0.0 - - 10 - - - -
24/10:00am 6.3 NW 8 10 1020.7 - 0.0 - - 10 - - - -
24/09:30am 5.3 NNW 4 6 1020.5 - 0.0 - Mostly clear 10 - - - -
24/09:00am 3.5 WNW 6 7 1020.5 F 0.0 Fine Mostly cloudy 40 - - - -
24/08:30am 3.1 NW 6 8 1020.3 - 0.0 - Mostly clear 10 - - - -
24/08:00am 2.5 NW 6 9 1020.1 - 0.0 - Mostly clear 10 - - - -
24/07:30am 2.1 W 4 5 1020.1 - 0.0 - Mostly clear 10 - - - -
24/07:00am 2.3 NW 5 6 1020.1 - 0.0 - Mostly clear 10 - - - -
24/06:30am 2.4 NW 6 7 1019.9 - 0.0 - - 10 - - - -
24/06:00am 1.8 NW 4 5 1019.9 S 0.0 Fine Partly cloudy 35 - - - -
24/05:30am 2.6 WNW 5 6 1019.8 - 0.0 - - 10 - - - -
24/05:00am 2.7 NW 6 7 1019.9 - 0.0 - - 10 - - - -
24/04:30am 1.7 NW 7 8 1019.8 - 0.0 - - 10 - - - -
24/04:00am 2.1 WNW 4 6 1019.8 - 0.0 - - 10 - - - -
24/03:30am 2.3 NW 7 7 1019.7 - 0.0 - - 10 - - - -
24/03:00am 3.0 NNW 5 7 1019.9 F 0.0 Fine Mostly clear 35 - - - -
24/02:30am 3.3 NW 5 7 1020.1 - 0.0 - - 10 - - - -
24/02:00am 3.6 NW 2 5 1020.2 - 0.0 - - 10 - - - -
24/01:30am 2.9 N 4 6 1020.1 - 0.0 - - 10 - - - -
24/01:00am 3.5 NW 9 10 1020.4 - 0.0 - - 10 - - - -
24/12:30am 3.7 NW 5 7 1020.4 - 0.0 - - 10 - - - -
24/12:00am 4.1 NW 3 5 1020.8 F 0.0 Fine Mostly clear 35 - - - -
 
Date/Time
EST
Temp

°C
Wind Pressure Rain
since 9am
mm
Weather Cloud Vis
km
Sea
Height
m
Swell
Dir
 
Speed
knots
Gust
knots
hPa Trend Height
m
Period
s
Dir
23/11:30pm 4.3 NW 6 8 1020.9 - 0.0 - - 10 - - - -
23/11:00pm 4.9 NW 9 10 1021.3 - 0.0 - - 10 - - - -
23/10:30pm 5.0 NW 9 10 1021.2 - 0.0 - - 10 - - - -
23/10:00pm 4.8 NW 6 7 1021.5 - 0.0 - - 10 - - - -
23/09:30pm 5.0 WNW 6 7 1021.6 - 0.0 - - 10 - - - -
23/09:00pm 4.8 NW 6 8 1021.6 F 0.0 Fine Mostly clear 35 - - - -
23/08:30pm 5.7 WNW 6 7 1021.7 - 0.0 - - 10 - - - -
23/08:00pm 5.9 NW 6 7 1021.7 - 0.0 - - 10 - - - -
23/07:30pm 4.8 WNW 4 4 1021.6 - 0.0 - - 10 - - - -
23/07:00pm 4.6 NW 4 5 1021.5 - 0.0 - - 10 - - - -
23/06:30pm 5.9 CALM 0 0 1021.2 - 0.0 - - 10 - - - -
23/06:00pm 7.0 CALM 0 0 1021.4 F 0.0 Fine Mostly clear 40 - - - -
23/05:30pm 8.4 S 3 4 1021.3 - 0.0 - Partly cloudy 10 - - - -
23/05:00pm 9.4 S 4 4 1021.3 - 0.0 - Partly cloudy 10 - - - -
23/04:30pm 10.3 S 5 5 1021.1 - 0.0 - Mostly clear 10 - - - -
23/04:00pm 11.7 SSE 6 7 1021.2 - 0.0 - Mostly clear 10 - - - -
23/03:30pm 12.2 SE 6 7 1021.0 - 0.0 - Mostly clear 10 - - - -
23/03:00pm 12.5 SSE 7 7 1021.0 F 0.0 Fine Mostly clear 40 - - - -
23/02:30pm 14.2 WNW 2 4 1021.0 - 0.0 - Mostly clear 10 - - - -
23/02:00pm 14.2 NNW 4 5 1021.2 - 0.0 - Mostly clear 10 - - - -
23/01:30pm 13.6 NNW 4 6 1021.5 - 0.0 - Mostly clear 10 - - - -
23/01:00pm 13.2 NW 6 8 1022.2 - 0.0 - Mostly clear 10 - - - -
23/12:30pm 12.8 NNW 6 8 1022.5 - 0.0 - Mostly clear 10 - - - -
23/12:00pm 12.6 NW 7 9 1023.0 F 0.0 Fine Mostly clear 40 - - - -
23/11:30am 11.6 NW 7 9 1023.4 - 0.0 - Mostly clear 10 - - - -
23/11:00am 11.2 NW 7 9 1024.1 - 0.0 - Mostly clear 10 - - - -
23/10:30am 10.1 NNW 6 9 1024.2 - 0.0 - Mostly clear 10 - - - -
23/10:00am 9.4 NW 6 7 1024.5 - 0.0 - - 10 - - - -
23/09:30am 8.0 NW 5 7 1024.4 - 0.0 - - 10 - - - -
23/09:00am 7.2 NW 7 9 1024.4 F 0.0 Fine Mostly clear 40 - - - -
23/08:30am 6.4 NW 7 8 1024.2 - 0.0 - - 10 - - - -
23/08:00am 5.4 NW 5 6 1024.4 - 0.0 - - 10 - - - -
23/07:30am 5.0 NW 4 5 1024.2 - 0.0 - - 10 - - - -
23/07:00am 5.8 NW 3 5 1024.2 - 0.0 - Partly cloudy 10 - - - -
23/06:30am 6.0 NW 3 4 1023.9 - 0.0 - Partly cloudy 10 - - - -
23/06:00am 6.2 NW 6 7 1023.9 F 0.0 Fine Partly cloudy 40 - - - -
23/05:30am 6.1 NNW 3 5 1023.7 - 0.0 - Partly cloudy 10 - - - -
23/05:00am 6.5 WNW 4 5 1023.9 - 0.0 - Cloudy 10 - - - -
23/04:30am 6.9 NW 6 7 1023.9 - 0.0 - Cloudy 10 - - - -
23/04:00am 7.3 NNW 3 6 1023.9 - 0.0 - Cloudy 10 - - - -
23/03:30am 7.3 NW 7 8 1023.8 - 0.0 - Cloudy 10 - - - -
23/03:00am 7.4 NW 6 7 1024.0 R 0.0 Fine Mostly cloudy 40 - - - -
23/02:30am 7.3 WNW 4 5 1024.0 - 0.0 - Cloudy 10 - - - -
23/02:00am 6.9 NW 5 6 1024.2 - 0.0 - Cloudy 10 - - - -
23/01:30am 7.1 NNW 5 5 1023.9 - 0.0 - Cloudy 10 - - - -
23/01:00am 7.0 NW 5 7 1024.1 - 0.0 - Cloudy 10 - - - -
23/12:30am 6.8 NW 5 7 1024.2 - 0.0 - Cloudy 10 - - - -
23/12:00am 7.0 NNW 6 9 1024.4 F 0.0 Fine Mostly cloudy 40 - - - -

Other Formats:

Comma delimited format used in spreadsheet applications
http://www.bom.gov.au/fwo/IDT60701/IDT60701.94975.axf

JavaScript Object Notation format (JSON) in row-major order
http://www.bom.gov.au/fwo/IDT60701/IDT60701.94975.json